Accokeek, Maryland
Current Conditions -  °F | °C
As of 7:03 AM on Saturday 01 Nov 2014 (Local Time) from KDAA Reporting Station
Overcast Overcast  
Wind Chill: 42°   Ceiling: 4800
Heat Index: 46°   Visibility: 10mi
Dew Point: 39°   Wind: 8mph
Humidity: 76%   Direction: 330°NNW
Pressure: 29.78"   Gusts: NA
Location:  38.67°N, 77.03°W
Report Text: KDAA 011103Z AUTO 33007KT 10SM SCT020 BKN048 OVC070 08/04 A2978 RMK AO2
Loading
Personal Weather Stations






























Interactive Weather Map
Tropical Storm Tracking
New forecast layout! Learn more

10-Day Weather Forecast

Advertisements
Track Severe Weather on mobile